sensor_id;sensor_type;location;lat;lon;timestamp;temperature;humidity
9271;DHT22;4673;53.458;9.940;2022-09-14T00:02:04;13.50;90.30
9271;DHT22;4673;53.458;9.940;2022-09-14T00:04:30;13.60;89.80
9271;DHT22;4673;53.458;9.940;2022-09-14T00:06:55;13.70;89.40
9271;DHT22;4673;53.458;9.940;2022-09-14T00:09:22;13.70;88.80
9271;DHT22;4673;53.458;9.940;2022-09-14T00:11:49;13.70;88.50
9271;DHT22;4673;53.458;9.940;2022-09-14T00:14:16;13.70;88.20
9271;DHT22;4673;53.458;9.940;2022-09-14T00:16:42;13.60;88.00
9271;DHT22;4673;53.458;9.940;2022-09-14T00:19:35;13.60;88.00
9271;DHT22;4673;53.458;9.940;2022-09-14T00:22:01;13.60;88.00
9271;DHT22;4673;53.458;9.940;2022-09-14T00:24:28;13.50;88.00
9271;DHT22;4673;53.458;9.940;2022-09-14T00:26:57;13.50;88.00
9271;DHT22;4673;53.458;9.940;2022-09-14T00:29:23;13.40;88.10
9271;DHT22;4673;53.458;9.940;2022-09-14T00:31:49;13.40;88.40
9271;DHT22;4673;53.458;9.940;2022-09-14T00:34:15;13.30;88.50
9271;DHT22;4673;53.458;9.940;2022-09-14T00:36:46;13.30;88.60
9271;DHT22;4673;53.458;9.940;2022-09-14T00:39:12;13.30;88.90
9271;DHT22;4673;53.458;9.940;2022-09-14T00:41:40;13.20;88.90
9271;DHT22;4673;53.458;9.940;2022-09-14T00:46:54;13.20;89.50
9271;DHT22;4673;53.458;9.940;2022-09-14T00:49:32;13.10;89.70
9271;DHT22;4673;53.458;9.940;2022-09-14T00:52:03;13.00;89.50
9271;DHT22;4673;53.458;9.940;2022-09-14T00:54:43;13.00;89.80
9271;DHT22;4673;53.458;9.940;2022-09-14T00:57:10;12.80;89.80
9271;DHT22;4673;53.458;9.940;2022-09-14T00:59:38;12.80;90.10
9271;DHT22;4673;53.458;9.940;2022-09-14T01:02:06;12.70;90.40
9271;DHT22;4673;53.458;9.940;2022-09-14T01:04:34;12.60;90.40
9271;DHT22;4673;53.458;9.940;2022-09-14T01:13:08;12.40;91.30
9271;DHT22;4673;53.458;9.940;2022-09-14T01:16:03;12.30;91.60
9271;DHT22;4673;53.458;9.940;2022-09-14T01:18:36;12.30;92.30
9271;DHT22;4673;53.458;9.940;2022-09-14T01:21:33;12.30;92.60
9271;DHT22;4673;53.458;9.940;2022-09-14T01:32:14;12.10;93.70
9271;DHT22;4673;53.458;9.940;2022-09-14T01:35:00;12.20;94.00
9271;DHT22;4673;53.458;9.940;2022-09-14T01:40:02;12.10;94.50
9271;DHT22;4673;53.458;9.940;2022-09-14T01:42:29;12.10;94.70
9271;DHT22;4673;53.458;9.940;2022-09-14T01:45:00;12.10;94.90
9271;DHT22;4673;53.458;9.940;2022-09-14T01:47:38;12.00;94.80
9271;DHT22;4673;53.458;9.940;2022-09-14T01:50:16;12.00;95.00
9271;DHT22;4673;53.458;9.940;2022-09-14T01:52:50;12.00;95.20
9271;DHT22;4673;53.458;9.940;2022-09-14T01:55:26;11.90;95.40
9271;DHT22;4673;53.458;9.940;2022-09-14T01:58:01;11.90;95.80
9271;DHT22;4673;53.458;9.940;2022-09-14T02:00:30;11.90;95.80
9271;DHT22;4673;53.458;9.940;2022-09-14T02:03:04;11.90;96.10
9271;DHT22;4673;53.458;9.940;2022-09-14T02:05:35;11.90;96.20
9271;DHT22;4673;53.458;9.940;2022-09-14T02:08:01;11.90;96.30
9271;DHT22;4673;53.458;9.940;2022-09-14T02:10:28;11.90;96.40
9271;DHT22;4673;53.458;9.940;2022-09-14T02:12:55;11.90;96.60
9271;DHT22;4673;53.458;9.940;2022-09-14T02:15:22;11.90;96.70
9271;DHT22;4673;53.458;9.940;2022-09-14T02:17:50;11.80;96.60
9271;DHT22;4673;53.458;9.940;2022-09-14T02:20:23;11.80;96.70
9271;DHT22;4673;53.458;9.940;2022-09-14T02:22:51;11.80;97.00
9271;DHT22;4673;53.458;9.940;2022-09-14T02:25:18;11.80;97.10
9271;DHT22;4673;53.458;9.940;2022-09-14T02:27:44;11.90;97.20
9271;DHT22;4673;53.458;9.940;2022-09-14T02:30:11;11.80;97.20
9271;DHT22;4673;53.458;9.940;2022-09-14T02:32:58;11.80;97.20
9271;DHT22;4673;53.458;9.940;2022-09-14T02:35:37;11.70;97.30
9271;DHT22;4673;53.458;9.940;2022-09-14T02:38:13;11.70;97.40
9271;DHT22;4673;53.458;9.940;2022-09-14T02:40:45;11.70;97.50
9271;DHT22;4673;53.458;9.940;2022-09-14T02:46:23;11.70;97.70
9271;DHT22;4673;53.458;9.940;2022-09-14T02:49:06;11.70;97.90
9271;DHT22;4673;53.458;9.940;2022-09-14T02:51:35;11.60;97.80
9271;DHT22;4673;53.458;9.940;2022-09-14T02:54:15;11.60;98.00
9271;DHT22;4673;53.458;9.940;2022-09-14T02:56:41;11.60;98.20
9271;DHT22;4673;53.458;9.940;2022-09-14T02:59:09;11.60;98.30
9271;DHT22;4673;53.458;9.940;2022-09-14T03:01:34;11.60;98.20
9271;DHT22;4673;53.458;9.940;2022-09-14T03:04:00;11.60;98.30
9271;DHT22;4673;53.458;9.940;2022-09-14T03:06:26;11.50;98.30
9271;DHT22;4673;53.458;9.940;2022-09-14T03:08:51;11.50;98.50
9271;DHT22;4673;53.458;9.940;2022-09-14T03:11:17;11.50;98.50
9271;DHT22;4673;53.458;9.940;2022-09-14T03:13:43;11.50;98.60
9271;DHT22;4673;53.458;9.940;2022-09-14T03:16:13;11.40;98.50
9271;DHT22;4673;53.458;9.940;2022-09-14T03:18:39;11.30;98.70
9271;DHT22;4673;53.458;9.940;2022-09-14T03:21:07;11.40;98.70
9271;DHT22;4673;53.458;9.940;2022-09-14T03:23:37;11.30;98.80
9271;DHT22;4673;53.458;9.940;2022-09-14T03:26:12;11.40;99.10
9271;DHT22;4673;53.458;9.940;2022-09-14T03:28:38;11.40;99.10
9271;DHT22;4673;53.458;9.940;2022-09-14T03:31:06;11.40;99.20
9271;DHT22;4673;53.458;9.940;2022-09-14T03:33:32;11.40;99.30
9271;DHT22;4673;53.458;9.940;2022-09-14T03:35:59;11.40;99.40
9271;DHT22;4673;53.458;9.940;2022-09-14T03:38:24;11.30;99.40
9271;DHT22;4673;53.458;9.940;2022-09-14T03:40:55;11.30;99.50
9271;DHT22;4673;53.458;9.940;2022-09-14T03:43:22;11.30;99.60
9271;DHT22;4673;53.458;9.940;2022-09-14T03:45:48;11.30;99.60
9271;DHT22;4673;53.458;9.940;2022-09-14T03:48:13;11.30;99.70
9271;DHT22;4673;53.458;9.940;2022-09-14T03:50:40;11.20;99.60
9271;DHT22;4673;53.458;9.940;2022-09-14T03:53:06;11.20;99.70
9271;DHT22;4673;53.458;9.940;2022-09-14T03:55:32;11.20;99.70
9271;DHT22;4673;53.458;9.940;2022-09-14T03:57:58;11.20;99.70
9271;DHT22;4673;53.458;9.940;2022-09-14T04:00:23;11.20;99.80
9271;DHT22;4673;53.458;9.940;2022-09-14T04:02:49;11.20;99.90
9271;DHT22;4673;53.458;9.940;2022-09-14T04:05:15;11.20;99.90
9271;DHT22;4673;53.458;9.940;2022-09-14T04:07:40;11.20;99.90
9271;DHT22;4673;53.458;9.940;2022-09-14T04:10:07;11.20;99.90
9271;DHT22;4673;53.458;9.940;2022-09-14T04:12:36;11.10;99.90
9271;DHT22;4673;53.458;9.940;2022-09-14T04:15:04;11.10;99.90
9271;DHT22;4673;53.458;9.940;2022-09-14T04:17:29;11.10;99.90
9271;DHT22;4673;53.458;9.940;2022-09-14T04:19:55;11.10;99.90
9271;DHT22;4673;53.458;9.940;2022-09-14T04:22:21;11.10;99.90
9271;DHT22;4673;53.458;9.940;2022-09-14T04:24:46;11.10;99.90
9271;DHT22;4673;53.458;9.940;2022-09-14T04:27:12;11.00;99.90
9271;DHT22;4673;53.458;9.940;2022-09-14T04:29:38;11.00;99.90
9271;DHT22;4673;53.458;9.940;2022-09-14T04:32:03;11.00;99.90
9271;DHT22;4673;53.458;9.940;2022-09-14T04:34:29;11.00;99.90
9271;DHT22;4673;53.458;9.940;2022-09-14T04:36:55;11.00;99.90
9271;DHT22;4673;53.458;9.940;2022-09-14T04:39:21;11.00;99.90
9271;DHT22;4673;53.458;9.940;2022-09-14T04:41:46;11.00;99.90
9271;DHT22;4673;53.458;9.940;2022-09-14T04:44:12;11.10;99.90
9271;DHT22;4673;53.458;9.940;2022-09-14T04:46:38;11.20;99.90
9271;DHT22;4673;53.458;9.940;2022-09-14T04:49:05;11.30;99.90
9271;DHT22;4673;53.458;9.940;2022-09-14T04:51:32;11.40;99.90
9271;DHT22;4673;53.458;9.940;2022-09-14T04:53:59;11.50;99.90
9271;DHT22;4673;53.458;9.940;2022-09-14T04:56:26;11.70;99.90
9271;DHT22;4673;53.458;9.940;2022-09-14T04:58:57;11.80;99.90
9271;DHT22;4673;53.458;9.940;2022-09-14T05:01:25;11.80;99.90
9271;DHT22;4673;53.458;9.940;2022-09-14T05:03:53;11.90;99.90
9271;DHT22;4673;53.458;9.940;2022-09-14T05:06:23;12.00;99.90
9271;DHT22;4673;53.458;9.940;2022-09-14T05:08:50;12.10;99.90
9271;DHT22;4673;53.458;9.940;2022-09-14T05:11:19;12.10;99.90
9271;DHT22;4673;53.458;9.940;2022-09-14T05:13:45;12.20;99.90
9271;DHT22;4673;53.458;9.940;2022-09-14T05:16:18;12.30;99.90
9271;DHT22;4673;53.458;9.940;2022-09-14T05:18:44;12.40;99.90
9271;DHT22;4673;53.458;9.940;2022-09-14T05:21:13;12.40;99.90
9271;DHT22;4673;53.458;9.940;2022-09-14T05:23:39;12.50;99.90
9271;DHT22;4673;53.458;9.940;2022-09-14T05:26:06;12.50;99.90
9271;DHT22;4673;53.458;9.940;2022-09-14T05:28:33;12.60;99.90
9271;DHT22;4673;53.458;9.940;2022-09-14T05:31:03;12.70;99.90
9271;DHT22;4673;53.458;9.940;2022-09-14T05:33:30;12.70;99.90
9271;DHT22;4673;53.458;9.940;2022-09-14T05:35:59;12.80;99.90
9271;DHT22;4673;53.458;9.940;2022-09-14T05:38:30;12.80;99.90
9271;DHT22;4673;53.458;9.940;2022-09-14T05:40:56;12.90;99.90
9271;DHT22;4673;53.458;9.940;2022-09-14T05:43:22;12.90;99.70
9271;DHT22;4673;53.458;9.940;2022-09-14T05:45:48;13.00;99.40
9271;DHT22;4673;53.458;9.940;2022-09-14T05:48:14;13.10;99.30
9271;DHT22;4673;53.458;9.940;2022-09-14T05:50:39;13.10;98.70
9271;DHT22;4673;53.458;9.940;2022-09-14T05:53:05;13.10;98.30
9271;DHT22;4673;53.458;9.940;2022-09-14T05:55:31;13.30;98.00
9271;DHT22;4673;53.458;9.940;2022-09-14T05:57:56;13.40;97.50
9271;DHT22;4673;53.458;9.940;2022-09-14T06:00:22;13.50;97.20
9271;DHT22;4673;53.458;9.940;2022-09-14T06:02:49;13.60;96.50
9271;DHT22;4673;53.458;9.940;2022-09-14T06:05:15;13.70;95.60
9271;DHT22;4673;53.458;9.940;2022-09-14T06:07:42;13.90;94.70
9271;DHT22;4673;53.458;9.940;2022-09-14T06:10:08;14.00;93.70
9271;DHT22;4673;53.458;9.940;2022-09-14T06:12:34;14.00;92.80
9271;DHT22;4673;53.458;9.940;2022-09-14T06:14:59;14.10;92.40
9271;DHT22;4673;53.458;9.940;2022-09-14T06:17:25;14.40;91.90
9271;DHT22;4673;53.458;9.940;2022-09-14T06:19:53;14.40;91.20
9271;DHT22;4673;53.458;9.940;2022-09-14T06:22:18;14.40;90.70
9271;DHT22;4673;53.458;9.940;2022-09-14T06:24:44;14.50;89.80
9271;DHT22;4673;53.458;9.940;2022-09-14T06:27:09;14.60;89.10
9271;DHT22;4673;53.458;9.940;2022-09-14T06:29:35;14.70;88.50
9271;DHT22;4673;53.458;9.940;2022-09-14T06:32:01;14.70;88.20
9271;DHT22;4673;53.458;9.940;2022-09-14T06:34:26;14.80;87.60
9271;DHT22;4673;53.458;9.940;2022-09-14T06:36:52;14.70;86.80
9271;DHT22;4673;53.458;9.940;2022-09-14T06:39:18;14.70;86.80
9271;DHT22;4673;53.458;9.940;2022-09-14T06:41:43;14.90;86.60
9271;DHT22;4673;53.458;9.940;2022-09-14T06:44:09;14.90;85.30
9271;DHT22;4673;53.458;9.940;2022-09-14T06:46:34;15.00;85.20
9271;DHT22;4673;53.458;9.940;2022-09-14T06:49:03;15.20;84.90
9271;DHT22;4673;53.458;9.940;2022-09-14T06:51:38;15.40;84.50
9271;DHT22;4673;53.458;9.940;2022-09-14T06:54:05;15.60;83.60
9271;DHT22;4673;53.458;9.940;2022-09-14T06:56:36;15.80;83.20
9271;DHT22;4673;53.458;9.940;2022-09-14T06:59:04;15.90;82.40
9271;DHT22;4673;53.458;9.940;2022-09-14T07:01:29;16.10;81.50
9271;DHT22;4673;53.458;9.940;2022-09-14T07:03:56;16.20;80.10
9271;DHT22;4673;53.458;9.940;2022-09-14T07:06:25;16.30;78.90
9271;DHT22;4673;53.458;9.940;2022-09-14T07:08:51;16.30;79.20
9271;DHT22;4673;53.458;9.940;2022-09-14T07:11:19;16.40;78.30
9271;DHT22;4673;53.458;9.940;2022-09-14T07:13:46;16.30;78.30
9271;DHT22;4673;53.458;9.940;2022-09-14T07:16:12;16.40;78.30
9271;DHT22;4673;53.458;9.940;2022-09-14T07:18:38;16.40;77.90
9271;DHT22;4673;53.458;9.940;2022-09-14T07:23:31;16.70;77.90
9271;DHT22;4673;53.458;9.940;2022-09-14T07:26:06;16.70;76.80
9271;DHT22;4673;53.458;9.940;2022-09-14T07:28:33;16.90;77.00
9271;DHT22;4673;53.458;9.940;2022-09-14T07:31:00;17.00;76.60
9271;DHT22;4673;53.458;9.940;2022-09-14T07:33:26;17.20;76.20
9271;DHT22;4673;53.458;9.940;2022-09-14T07:35:52;17.40;75.00
9271;DHT22;4673;53.458;9.940;2022-09-14T07:38:18;17.30;74.30
9271;DHT22;4673;53.458;9.940;2022-09-14T07:40:44;17.20;74.50
9271;DHT22;4673;53.458;9.940;2022-09-14T07:43:10;17.20;74.60
9271;DHT22;4673;53.458;9.940;2022-09-14T07:45:37;17.20;74.60
9271;DHT22;4673;53.458;9.940;2022-09-14T07:48:04;17.20;74.90
9271;DHT22;4673;53.458;9.940;2022-09-14T07:50:30;17.30;74.70
9271;DHT22;4673;53.458;9.940;2022-09-14T07:52:56;17.40;73.90
9271;DHT22;4673;53.458;9.940;2022-09-14T07:55:21;17.50;74.00
9271;DHT22;4673;53.458;9.940;2022-09-14T07:57:47;17.60;73.50
9271;DHT22;4673;53.458;9.940;2022-09-14T08:00:13;17.70;73.00
9271;DHT22;4673;53.458;9.940;2022-09-14T08:02:40;17.70;73.40
9271;DHT22;4673;53.458;9.940;2022-09-14T08:05:06;17.80;72.90
9271;DHT22;4673;53.458;9.940;2022-09-14T08:07:31;17.90;72.20
9271;DHT22;4673;53.458;9.940;2022-09-14T08:09:57;17.80;71.90
9271;DHT22;4673;53.458;9.940;2022-09-14T08:12:23;17.70;71.60
9271;DHT22;4673;53.458;9.940;2022-09-14T08:14:49;17.70;72.20
9271;DHT22;4673;53.458;9.940;2022-09-14T08:17:16;17.80;72.20
9271;DHT22;4673;53.458;9.940;2022-09-14T08:19:42;17.90;72.20
9271;DHT22;4673;53.458;9.940;2022-09-14T08:22:08;18.10;72.00
9271;DHT22;4673;53.458;9.940;2022-09-14T08:24:33;18.30;71.00
9271;DHT22;4673;53.458;9.940;2022-09-14T08:26:59;18.50;69.30
9271;DHT22;4673;53.458;9.940;2022-09-14T08:29:25;18.60;69.00
9271;DHT22;4673;53.458;9.940;2022-09-14T08:31:51;18.70;67.90
9271;DHT22;4673;53.458;9.940;2022-09-14T08:34:18;18.80;67.20
9271;DHT22;4673;53.458;9.940;2022-09-14T08:36:46;19.00;66.60
9271;DHT22;4673;53.458;9.940;2022-09-14T08:39:13;19.00;65.30
9271;DHT22;4673;53.458;9.940;2022-09-14T08:44:15;18.60;62.80
9271;DHT22;4673;53.458;9.940;2022-09-14T08:52:48;18.80;64.30
9271;DHT22;4673;53.458;9.940;2022-09-14T09:01:15;18.90;62.00
9271;DHT22;4673;53.458;9.940;2022-09-14T09:04:03;18.90;62.40
9271;DHT22;4673;53.458;9.940;2022-09-14T09:09:43;18.80;62.90
9271;DHT22;4673;53.458;9.940;2022-09-14T09:12:37;18.90;64.10
9271;DHT22;4673;53.458;9.940;2022-09-14T09:17:45;19.20;62.00
9271;DHT22;4673;53.458;9.940;2022-09-14T09:20:24;19.10;61.10
9271;DHT22;4673;53.458;9.940;2022-09-14T09:23:18;18.90;61.80
9271;DHT22;4673;53.458;9.940;2022-09-14T09:28:47;18.70;59.40
9271;DHT22;4673;53.458;9.940;2022-09-14T09:31:15;18.60;61.20
9271;DHT22;4673;53.458;9.940;2022-09-14T09:33:41;18.90;61.00
9271;DHT22;4673;53.458;9.940;2022-09-14T09:36:12;19.20;60.00
9271;DHT22;4673;53.458;9.940;2022-09-14T09:38:39;19.60;59.00
9271;DHT22;4673;53.458;9.940;2022-09-14T09:41:21;19.60;56.90
9271;DHT22;4673;53.458;9.940;2022-09-14T09:44:04;19.60;53.90
9271;DHT22;4673;53.458;9.940;2022-09-14T09:46:33;19.40;54.40
9271;DHT22;4673;53.458;9.940;2022-09-14T09:49:03;19.20;56.60
9271;DHT22;4673;53.458;9.940;2022-09-14T09:51:39;19.20;57.90
9271;DHT22;4673;53.458;9.940;2022-09-14T09:54:27;19.50;57.20
9271;DHT22;4673;53.458;9.940;2022-09-14T09:59:39;19.00;54.40
9271;DHT22;4673;53.458;9.940;2022-09-14T10:02:30;18.70;55.20
9271;DHT22;4673;53.458;9.940;2022-09-14T10:05:17;18.70;56.90
9271;DHT22;4673;53.458;9.940;2022-09-14T10:10:17;19.00;55.50
9271;DHT22;4673;53.458;9.940;2022-09-14T10:12:54;19.20;55.30
9271;DHT22;4673;53.458;9.940;2022-09-14T10:15:24;19.40;55.10
9271;DHT22;4673;53.458;9.940;2022-09-14T10:18:03;19.40;53.90
9271;DHT22;4673;53.458;9.940;2022-09-14T10:20:30;19.70;54.50
9271;DHT22;4673;53.458;9.940;2022-09-14T10:25:39;20.10;52.90
9271;DHT22;4673;53.458;9.940;2022-09-14T10:30:50;20.40;52.80
9271;DHT22;4673;53.458;9.940;2022-09-14T10:33:18;20.70;53.50
9271;DHT22;4673;53.458;9.940;2022-09-14T10:36:04;21.20;52.60
9271;DHT22;4673;53.458;9.940;2022-09-14T10:38:48;21.50;49.60
9271;DHT22;4673;53.458;9.940;2022-09-14T10:41:38;21.80;48.10
9271;DHT22;4673;53.458;9.940;2022-09-14T10:44:27;21.90;47.10
9271;DHT22;4673;53.458;9.940;2022-09-14T10:55:09;19.90;48.50
9271;DHT22;4673;53.458;9.940;2022-09-14T11:04:13;20.50;49.30
9271;DHT22;4673;53.458;9.940;2022-09-14T11:06:57;20.70;48.30
9271;DHT22;4673;53.458;9.940;2022-09-14T11:09:56;21.00;47.70
9271;DHT22;4673;53.458;9.940;2022-09-14T11:15:22;21.10;46.50
9271;DHT22;4673;53.458;9.940;2022-09-14T11:26:19;20.60;46.50
9271;DHT22;4673;53.458;9.940;2022-09-14T11:29:02;20.20;46.60
9271;DHT22;4673;53.458;9.940;2022-09-14T11:31:38;19.70;48.50
9271;DHT22;4673;53.458;9.940;2022-09-14T11:34:42;19.60;50.50
9271;DHT22;4673;53.458;9.940;2022-09-14T11:37:13;19.10;51.20
9271;DHT22;4673;53.458;9.940;2022-09-14T11:39:47;18.60;53.10
9271;DHT22;4673;53.458;9.940;2022-09-14T11:42:25;18.50;54.80
9271;DHT22;4673;53.458;9.940;2022-09-14T11:45:02;18.60;55.30
9271;DHT22;4673;53.458;9.940;2022-09-14T11:47:36;18.50;56.30
9271;DHT22;4673;53.458;9.940;2022-09-14T11:50:13;18.20;57.50
9271;DHT22;4673;53.458;9.940;2022-09-14T11:52:39;18.10;58.70
9271;DHT22;4673;53.458;9.940;2022-09-14T11:55:10;18.10;59.20
9271;DHT22;4673;53.458;9.940;2022-09-14T11:57:45;17.90;60.20
9271;DHT22;4673;53.458;9.940;2022-09-14T12:03:22;17.80;61.80
9271;DHT22;4673;53.458;9.940;2022-09-14T12:05:49;17.80;62.40
9271;DHT22;4673;53.458;9.940;2022-09-14T12:08:36;17.60;62.80
9271;DHT22;4673;53.458;9.940;2022-09-14T12:13:37;17.70;63.50
9271;DHT22;4673;53.458;9.940;2022-09-14T12:16:08;17.80;62.90
9271;DHT22;4673;53.458;9.940;2022-09-14T12:18:36;18.10;63.40
9271;DHT22;4673;53.458;9.940;2022-09-14T12:21:23;18.50;62.80
9271;DHT22;4673;53.458;9.940;2022-09-14T12:23:51;19.00;61.50
9271;DHT22;4673;53.458;9.940;2022-09-14T12:26:30;19.00;59.30
9271;DHT22;4673;53.458;9.940;2022-09-14T12:29:04;19.10;57.80
9271;DHT22;4673;53.458;9.940;2022-09-14T12:44:40;19.80;54.90
9271;DHT22;4673;53.458;9.940;2022-09-14T12:49:56;19.80;55.30
9271;DHT22;4673;53.458;9.940;2022-09-14T12:52:38;20.00;54.40
9271;DHT22;4673;53.458;9.940;2022-09-14T12:55:41;20.00;54.90
9271;DHT22;4673;53.458;9.940;2022-09-14T13:03:56;20.50;53.50
9271;DHT22;4673;53.458;9.940;2022-09-14T13:06:25;20.40;52.80
9271;DHT22;4673;53.458;9.940;2022-09-14T13:08:57;20.40;52.00
9271;DHT22;4673;53.458;9.940;2022-09-14T13:11:34;20.40;52.00
9271;DHT22;4673;53.458;9.940;2022-09-14T13:14:01;20.20;52.60
9271;DHT22;4673;53.458;9.940;2022-09-14T13:16:54;20.10;53.10
9271;DHT22;4673;53.458;9.940;2022-09-14T13:19:31;19.80;54.00
9271;DHT22;4673;53.458;9.940;2022-09-14T13:22:00;19.50;54.70
9271;DHT22;4673;53.458;9.940;2022-09-14T13:24:30;19.40;55.50
9271;DHT22;4673;53.458;9.940;2022-09-14T13:27:00;19.40;56.10
9271;DHT22;4673;53.458;9.940;2022-09-14T13:29:26;19.40;56.70
9271;DHT22;4673;53.458;9.940;2022-09-14T13:31:53;19.40;57.40
9271;DHT22;4673;53.458;9.940;2022-09-14T13:34:24;19.50;57.10
9271;DHT22;4673;53.458;9.940;2022-09-14T13:36:50;19.70;57.00
9271;DHT22;4673;53.458;9.940;2022-09-14T13:39:25;19.60;56.60
9271;DHT22;4673;53.458;9.940;2022-09-14T13:41:52;19.60;55.80
9271;DHT22;4673;53.458;9.940;2022-09-14T13:44:22;19.50;56.20
9271;DHT22;4673;53.458;9.940;2022-09-14T13:46:49;19.50;56.90
9271;DHT22;4673;53.458;9.940;2022-09-14T13:49:15;19.60;56.60
9271;DHT22;4673;53.458;9.940;2022-09-14T13:51:41;19.40;56.30
9271;DHT22;4673;53.458;9.940;2022-09-14T13:54:26;19.30;56.80
9271;DHT22;4673;53.458;9.940;2022-09-14T13:57:15;19.30;57.30
9271;DHT22;4673;53.458;9.940;2022-09-14T14:02:49;18.90;57.60
9271;DHT22;4673;53.458;9.940;2022-09-14T14:05:27;18.80;56.50
9271;DHT22;4673;53.458;9.940;2022-09-14T14:07:55;18.70;57.00
9271;DHT22;4673;53.458;9.940;2022-09-14T14:10:44;18.60;55.80
9271;DHT22;4673;53.458;9.940;2022-09-14T14:13:10;18.30;56.60
9271;DHT22;4673;53.458;9.940;2022-09-14T14:15:41;18.30;57.60
9271;DHT22;4673;53.458;9.940;2022-09-14T14:21:13;18.40;58.80
9271;DHT22;4673;53.458;9.940;2022-09-14T14:23:40;18.50;59.10
9271;DHT22;4673;53.458;9.940;2022-09-14T14:26:13;18.50;59.20
9271;DHT22;4673;53.458;9.940;2022-09-14T14:28:40;18.50;58.50
9271;DHT22;4673;53.458;9.940;2022-09-14T14:31:12;18.50;58.80
9271;DHT22;4673;53.458;9.940;2022-09-14T14:33:46;18.50;58.90
9271;DHT22;4673;53.458;9.940;2022-09-14T14:36:13;18.50;58.40
9271;DHT22;4673;53.458;9.940;2022-09-14T14:38:40;18.50;58.10
9271;DHT22;4673;53.458;9.940;2022-09-14T14:41:11;18.50;58.40
9271;DHT22;4673;53.458;9.940;2022-09-14T14:43:37;18.60;57.50
9271;DHT22;4673;53.458;9.940;2022-09-14T14:46:05;18.60;57.70
9271;DHT22;4673;53.458;9.940;2022-09-14T14:48:31;18.60;57.40
9271;DHT22;4673;53.458;9.940;2022-09-14T14:50:57;18.40;56.30
9271;DHT22;4673;53.458;9.940;2022-09-14T14:53:23;18.30;58.10
9271;DHT22;4673;53.458;9.940;2022-09-14T14:55:49;18.30;57.20
9271;DHT22;4673;53.458;9.940;2022-09-14T14:58:17;18.20;57.20
9271;DHT22;4673;53.458;9.940;2022-09-14T15:00:43;18.10;56.50
9271;DHT22;4673;53.458;9.940;2022-09-14T15:03:09;18.20;56.90
9271;DHT22;4673;53.458;9.940;2022-09-14T15:05:39;18.50;56.80
9271;DHT22;4673;53.458;9.940;2022-09-14T15:08:04;18.70;56.00
9271;DHT22;4673;53.458;9.940;2022-09-14T15:10:30;18.80;54.50
9271;DHT22;4673;53.458;9.940;2022-09-14T15:12:56;18.70;54.00
9271;DHT22;4673;53.458;9.940;2022-09-14T15:15:24;18.80;54.10
9271;DHT22;4673;53.458;9.940;2022-09-14T15:17:50;18.70;52.70
9271;DHT22;4673;53.458;9.940;2022-09-14T15:20:16;18.50;52.70
9271;DHT22;4673;53.458;9.940;2022-09-14T15:22:45;18.40;52.90
9271;DHT22;4673;53.458;9.940;2022-09-14T15:25:12;18.20;53.90
9271;DHT22;4673;53.458;9.940;2022-09-14T15:27:38;18.30;54.90
9271;DHT22;4673;53.458;9.940;2022-09-14T15:30:06;18.30;54.00
9271;DHT22;4673;53.458;9.940;2022-09-14T15:32:32;18.20;55.00
9271;DHT22;4673;53.458;9.940;2022-09-14T15:34:57;18.40;54.90
9271;DHT22;4673;53.458;9.940;2022-09-14T15:37:23;18.50;55.20
9271;DHT22;4673;53.458;9.940;2022-09-14T15:39:48;18.60;55.30
9271;DHT22;4673;53.458;9.940;2022-09-14T15:42:16;18.80;54.90
9271;DHT22;4673;53.458;9.940;2022-09-14T15:44:41;18.80;53.90
9271;DHT22;4673;53.458;9.940;2022-09-14T15:47:09;19.00;53.90
9271;DHT22;4673;53.458;9.940;2022-09-14T15:49:35;19.00;53.20
9271;DHT22;4673;53.458;9.940;2022-09-14T15:52:01;18.90;52.70
9271;DHT22;4673;53.458;9.940;2022-09-14T15:54:31;18.90;53.20
9271;DHT22;4673;53.458;9.940;2022-09-14T15:56:57;18.80;53.40
9271;DHT22;4673;53.458;9.940;2022-09-14T15:59:27;18.70;54.40
9271;DHT22;4673;53.458;9.940;2022-09-14T16:01:53;18.40;54.00
9271;DHT22;4673;53.458;9.940;2022-09-14T16:04:19;18.40;54.60
9271;DHT22;4673;53.458;9.940;2022-09-14T16:06:45;18.40;55.10
9271;DHT22;4673;53.458;9.940;2022-09-14T16:09:12;18.40;55.70
9271;DHT22;4673;53.458;9.940;2022-09-14T16:11:38;18.30;55.20
9271;DHT22;4673;53.458;9.940;2022-09-14T16:14:05;18.30;55.80
9271;DHT22;4673;53.458;9.940;2022-09-14T16:16:32;18.30;56.20
9271;DHT22;4673;53.458;9.940;2022-09-14T16:19:03;18.40;56.50
9271;DHT22;4673;53.458;9.940;2022-09-14T16:21:29;18.30;56.50
9271;DHT22;4673;53.458;9.940;2022-09-14T16:23:58;18.40;56.50
9271;DHT22;4673;53.458;9.940;2022-09-14T16:26:27;18.20;56.80
9271;DHT22;4673;53.458;9.940;2022-09-14T16:28:53;18.10;57.30
9271;DHT22;4673;53.458;9.940;2022-09-14T16:31:27;18.00;57.80
9271;DHT22;4673;53.458;9.940;2022-09-14T16:33:56;18.00;58.40
9271;DHT22;4673;53.458;9.940;2022-09-14T16:36:28;18.00;59.30
9271;DHT22;4673;53.458;9.940;2022-09-14T16:39:00;18.00;59.40
9271;DHT22;4673;53.458;9.940;2022-09-14T16:41:26;18.00;59.50
9271;DHT22;4673;53.458;9.940;2022-09-14T16:43:54;18.00;59.60
9271;DHT22;4673;53.458;9.940;2022-09-14T16:46:20;18.00;59.80
9271;DHT22;4673;53.458;9.940;2022-09-14T16:48:47;17.90;60.60
9271;DHT22;4673;53.458;9.940;2022-09-14T16:51:15;17.90;61.10
9271;DHT22;4673;53.458;9.940;2022-09-14T16:53:42;17.70;61.40
9271;DHT22;4673;53.458;9.940;2022-09-14T16:56:14;17.60;61.60
9271;DHT22;4673;53.458;9.940;2022-09-14T16:58:41;17.40;62.10
9271;DHT22;4673;53.458;9.940;2022-09-14T17:01:15;17.30;62.80
9271;DHT22;4673;53.458;9.940;2022-09-14T17:03:43;17.20;63.30
9271;DHT22;4673;53.458;9.940;2022-09-14T17:06:12;17.10;63.80
9271;DHT22;4673;53.458;9.940;2022-09-14T17:08:39;17.00;64.60
9271;DHT22;4673;53.458;9.940;2022-09-14T17:11:04;16.90;65.30
9271;DHT22;4673;53.458;9.940;2022-09-14T17:13:31;16.70;65.90
9271;DHT22;4673;53.458;9.940;2022-09-14T17:18:30;16.40;67.20
9271;DHT22;4673;53.458;9.940;2022-09-14T17:21:02;16.20;67.70
9271;DHT22;4673;53.458;9.940;2022-09-14T17:23:28;16.20;68.50
9271;DHT22;4673;53.458;9.940;2022-09-14T17:25:54;16.10;69.20
9271;DHT22;4673;53.458;9.940;2022-09-14T17:28:22;16.00;69.70
9271;DHT22;4673;53.458;9.940;2022-09-14T17:30:53;16.00;70.40
9271;DHT22;4673;53.458;9.940;2022-09-14T17:33:20;15.90;70.90
9271;DHT22;4673;53.458;9.940;2022-09-14T17:35:47;15.80;71.10
9271;DHT22;4673;53.458;9.940;2022-09-14T17:38:14;15.80;71.80
9271;DHT22;4673;53.458;9.940;2022-09-14T17:40:40;15.60;72.00
9271;DHT22;4673;53.458;9.940;2022-09-14T17:43:05;15.60;72.50
9271;DHT22;4673;53.458;9.940;2022-09-14T17:45:31;15.50;72.70
9271;DHT22;4673;53.458;9.940;2022-09-14T17:47:57;15.50;72.70
9271;DHT22;4673;53.458;9.940;2022-09-14T17:50:22;15.50;72.70
9271;DHT22;4673;53.458;9.940;2022-09-14T17:52:49;15.40;72.40
9271;DHT22;4673;53.458;9.940;2022-09-14T17:55:15;15.40;72.70
9271;DHT22;4673;53.458;9.940;2022-09-14T17:57:41;15.30;73.00
9271;DHT22;4673;53.458;9.940;2022-09-14T18:00:07;15.20;73.40
9271;DHT22;4673;53.458;9.940;2022-09-14T18:02:33;15.20;73.60
9271;DHT22;4673;53.458;9.940;2022-09-14T18:04:58;15.20;73.80
9271;DHT22;4673;53.458;9.940;2022-09-14T18:07:26;15.10;74.20
9271;DHT22;4673;53.458;9.940;2022-09-14T18:09:52;15.00;74.10
9271;DHT22;4673;53.458;9.940;2022-09-14T18:12:17;14.90;74.10
9271;DHT22;4673;53.458;9.940;2022-09-14T18:14:44;14.80;74.60
9271;DHT22;4673;53.458;9.940;2022-09-14T18:17:10;14.70;75.00
9271;DHT22;4673;53.458;9.940;2022-09-14T18:19:37;14.70;75.40